Time;durP1;ratioP1;P1;durP2;ratioP2;P2;SDS_P1;SDS_P2;PMS_P1;PMS_P2;Temp;Humidity;BMP_temperature;BMP_pressure;BME280_temperature;BME280_humidity;BME280_pressure;Samples;Min_cycle;Max_cycle;Signal;HPM_P1;HPM_P2
2023/01/06 00:01:43;;;;;;;87.10;52.67;;;;;;;;;;4408956;32;319569;-86
2023/01/06 00:04:10;;;;;;;112.00;60.30;;;;;;;;;;4411926;32;317813;-83
2023/01/06 00:06:37;;;;;;;105.97;58.10;;;;;;;;;;4401987;32;343151;-83
2023/01/06 00:09:05;;;;;;;130.57;70.97;;;;;;;;;;4401368;32;318670;-83
2023/01/06 00:11:32;;;;;;;122.03;65.57;;;;;;;;;;4395621;32;317747;-79
2023/01/06 00:13:59;;;;;;;103.23;62.37;;;;;;;;;;4409882;32;319463;-85
2023/01/06 00:16:26;;;;;;;112.60;61.93;;;;;;;;;;4392327;32;319125;-79
2023/01/06 00:18:57;;;;;;;118.53;69.07;;;;;;;;;;4405181;32;318595;-85
2023/01/06 00:21:24;;;;;;;119.10;68.57;;;;;;;;;;4404255;32;319489;-84
2023/01/06 00:23:51;;;;;;;131.80;74.97;;;;;;;;;;4413665;32;319591;-81
2023/01/06 00:26:18;;;;;;;121.60;70.10;;;;;;;;;;4414180;32;318582;-83
2023/01/06 00:28:44;;;;;;;121.17;69.50;;;;;;;;;;4403022;32;318738;-84
2023/01/06 00:31:13;;;;;;;132.50;74.53;;;;;;;;;;4412614;32;319591;-81
2023/01/06 00:33:40;;;;;;;126.47;74.70;;;;;;;;;;4400556;32;319428;-85
2023/01/06 00:36:11;;;;;;;139.70;75.93;;;;;;;;;;4399965;32;319611;-88
2023/01/06 00:38:38;;;;;;;132.83;76.80;;;;;;;;;;4400890;32;319032;-89
2023/01/06 00:42:02;;;;;;;153.27;84.53;;;;;;;;;;4411863;32;319365;-79
2023/01/06 00:43:53;;;;;;;146.57;74.50;;;;;;;;;;4393341;32;389557;-77
2023/01/06 00:46:21;;;;;;;129.67;73.47;;;;;;;;;;4421112;32;319488;-82
2023/01/06 00:48:48;;;;;;;125.30;72.90;;;;;;;;;;4403706;32;319169;-79
2023/01/06 00:51:16;;;;;;;114.77;67.63;;;;;;;;;;4413118;32;318757;-79
2023/01/06 00:53:43;;;;;;;101.17;59.30;;;;;;;;;;4391606;32;318537;-87
2023/01/06 00:56:10;;;;;;;86.83;53.60;;;;;;;;;;4403344;32;358100;-79
2023/01/06 00:58:37;;;;;;;85.23;53.67;;;;;;;;;;4400813;32;317696;-77
2023/01/06 01:01:05;;;;;;;81.10;50.10;;;;;;;;;;4422714;32;316048;-89
2023/01/06 01:03:34;;;;;;;77.07;50.33;;;;;;;;;;4419785;32;317674;-86
2023/01/06 01:06:01;;;;;;;81.40;50.30;;;;;;;;;;4409504;32;317529;-89
2023/01/06 01:08:29;;;;;;;91.93;52.60;;;;;;;;;;4393618;32;318090;-86
2023/01/06 01:11:01;;;;;;;135.70;74.60;;;;;;;;;;4404325;32;316506;-84
2023/01/06 01:13:28;;;;;;;156.70;92.43;;;;;;;;;;4403669;32;319951;-78
2023/01/06 01:15:55;;;;;;;209.83;113.63;;;;;;;;;;4400748;32;319343;-80
2023/01/06 01:18:23;;;;;;;219.57;120.13;;;;;;;;;;4408318;32;320454;-79
2023/01/06 01:20:50;;;;;;;217.70;120.93;;;;;;;;;;4392298;32;420999;-86
2023/01/06 01:23:17;;;;;;;211.13;116.03;;;;;;;;;;4412908;32;320257;-78
2023/01/06 01:25:45;;;;;;;204.87;111.63;;;;;;;;;;4403853;32;319755;-77
2023/01/06 01:28:12;;;;;;;178.03;100.53;;;;;;;;;;4413631;32;320561;-89
2023/01/06 01:30:39;;;;;;;161.73;91.90;;;;;;;;;;4402903;32;343182;-81
2023/01/06 01:33:08;;;;;;;148.63;86.30;;;;;;;;;;4413155;32;319595;-87
2023/01/06 01:35:35;;;;;;;174.53;93.47;;;;;;;;;;4403500;32;319788;-84
2023/01/06 01:38:03;;;;;;;182.37;98.03;;;;;;;;;;4412864;32;319937;-87
2023/01/06 01:40:30;;;;;;;180.90;100.27;;;;;;;;;;4401649;32;319174;-84
2023/01/06 01:42:59;;;;;;;191.87;109.50;;;;;;;;;;4397110;32;320641;-82
2023/01/06 01:45:27;;;;;;;191.90;106.30;;;;;;;;;;4387945;32;319710;-84
2023/01/06 01:47:59;;;;;;;182.77;104.00;;;;;;;;;;4397873;32;319705;-79
2023/01/06 01:50:31;;;;;;;164.30;95.47;;;;;;;;;;4384295;32;319538;-83
2023/01/06 01:53:04;;;;;;;143.10;85.80;;;;;;;;;;4397533;32;319367;-82
2023/01/06 01:55:32;;;;;;;142.23;81.70;;;;;;;;;;4390994;32;318728;-78
2023/01/06 01:58:04;;;;;;;124.33;76.13;;;;;;;;;;4413485;32;319629;-78
2023/01/06 02:00:31;;;;;;;136.30;75.23;;;;;;;;;;4402695;32;332154;-81
2023/01/06 02:02:59;;;;;;;135.30;76.23;;;;;;;;;;4413102;32;318768;-78
2023/01/06 02:05:27;;;;;;;136.70;77.53;;;;;;;;;;4404595;32;319733;-84
2023/01/06 02:07:57;;;;;;;131.07;76.00;;;;;;;;;;4411607;32;347758;-86
2023/01/06 02:10:25;;;;;;;123.93;74.67;;;;;;;;;;4404151;32;318411;-81
2023/01/06 02:12:56;;;;;;;133.97;75.43;;;;;;;;;;4415784;32;318689;-89
2023/01/06 02:15:26;;;;;;;131.93;76.40;;;;;;;;;;4408465;32;318773;-84
2023/01/06 02:18:07;;;;;;;126.00;76.23;;;;;;;;;;4414034;32;319337;-85
2023/01/06 02:20:55;;;;;;;134.13;74.33;;;;;;;;;;4406595;32;319100;-80
2023/01/06 02:23:57;;;;;;;121.10;71.13;;;;;;;;;;4416327;32;319241;-88
2023/01/06 02:27:21;;;;;;;110.70;68.27;;;;;;;;;;4385595;32;420046;-79
2023/01/06 02:30:18;;;;;;;132.87;73.30;;;;;;;;;;4326661;32;419562;-82
2023/01/06 02:33:05;;;;;;;131.20;75.17;;;;;;;;;;4389458;32;331658;-79
2023/01/06 02:35:56;;;;;;;123.67;72.17;;;;;;;;;;4390568;32;319279;-86
2023/01/06 02:38:34;;;;;;;133.17;78.53;;;;;;;;;;4389694;32;319427;-80
2023/01/06 02:41:12;;;;;;;134.47;79.20;;;;;;;;;;4405404;32;321503;-79
2023/01/06 02:43:52;;;;;;;140.10;82.87;;;;;;;;;;4405738;32;319083;-86
2023/01/06 02:46:34;;;;;;;128.57;77.07;;;;;;;;;;4414993;32;318650;-86
2023/01/06 02:49:13;;;;;;;133.17;79.00;;;;;;;;;;4401783;32;419483;-85
2023/01/06 02:51:49;;;;;;;138.50;77.67;;;;;;;;;;4403850;32;318619;-78
2023/01/06 02:54:25;;;;;;;126.17;72.10;;;;;;;;;;4416523;32;319118;-78
2023/01/06 02:57:00;;;;;;;120.37;67.73;;;;;;;;;;4405030;32;417940;-78
2023/01/06 02:59:33;;;;;;;81.93;50.23;;;;;;;;;;4408022;32;319466;-81
2023/01/06 03:02:02;;;;;;;82.10;49.33;;;;;;;;;;4418298;32;325875;-87
2023/01/06 03:04:35;;;;;;;83.43;51.70;;;;;;;;;;4408588;32;317616;-81
2023/01/06 03:07:03;;;;;;;93.37;55.63;;;;;;;;;;4420064;32;318224;-77
2023/01/06 03:09:34;;;;;;;87.43;54.03;;;;;;;;;;4412367;32;317350;-78
2023/01/06 03:12:07;;;;;;;113.90;65.27;;;;;;;;;;4420379;32;332116;-80
2023/01/06 03:14:38;;;;;;;107.27;63.13;;;;;;;;;;4412530;32;319733;-82
2023/01/06 03:17:05;;;;;;;106.47;64.77;;;;;;;;;;4421144;32;319012;-80
2023/01/06 03:19:33;;;;;;;109.33;68.80;;;;;;;;;;4409028;32;319710;-81
2023/01/06 03:22:01;;;;;;;112.03;69.43;;;;;;;;;;4403585;32;318551;-82
2023/01/06 03:24:28;;;;;;;113.33;69.50;;;;;;;;;;4393644;32;352888;-83
2023/01/06 03:26:56;;;;;;;106.30;68.27;;;;;;;;;;4414891;32;319043;-84
2023/01/06 03:29:23;;;;;;;113.67;71.53;;;;;;;;;;4411520;32;318579;-80
2023/01/06 03:32:00;;;;;;;112.40;69.80;;;;;;;;;;4418713;32;318351;-83
2023/01/06 03:34:40;;;;;;;128.27;76.87;;;;;;;;;;4406414;32;318995;-84
2023/01/06 03:37:14;;;;;;;119.20;71.00;;;;;;;;;;4415277;32;319211;-83
2023/01/06 03:39:52;;;;;;;112.27;71.27;;;;;;;;;;4403955;32;319512;-82
2023/01/06 03:45:24;;;;;;;123.47;73.50;;;;;;;;;;4402933;32;390000;-80
2023/01/06 03:47:58;;;;;;;124.13;75.33;;;;;;;;;;4402812;32;420034;-83
2023/01/06 03:50:32;;;;;;;122.63;74.80;;;;;;;;;;4403498;32;318839;-80
2023/01/06 03:53:09;;;;;;;123.50;72.90;;;;;;;;;;4413240;32;319736;-87
2023/01/06 03:55:38;;;;;;;105.37;64.80;;;;;;;;;;4404311;32;319248;-84
2023/01/06 03:58:12;;;;;;;114.47;64.50;;;;;;;;;;4414743;32;318532;-79
2023/01/06 04:00:39;;;;;;;109.07;66.73;;;;;;;;;;4403496;32;319082;-83
2023/01/06 04:03:09;;;;;;;139.70;74.80;;;;;;;;;;4412619;32;360618;-79
2023/01/06 04:05:37;;;;;;;101.93;63.70;;;;;;;;;;4404929;32;319186;-87
2023/01/06 04:08:04;;;;;;;108.87;63.40;;;;;;;;;;4401670;32;319154;-79
2023/01/06 04:10:31;;;;;;;107.70;62.70;;;;;;;;;;4390396;32;319473;-80
2023/01/06 04:12:56;;;;;;;102.57;59.63;;;;;;;;;;4399441;32;318838;-84
2023/01/06 04:15:25;;;;;;;108.80;59.40;;;;;;;;;;4401257;32;319123;-87
2023/01/06 04:17:53;;;;;;;111.47;66.27;;;;;;;;;;4414918;32;318763;-82
2023/01/06 04:20:24;;;;;;;106.87;66.23;;;;;;;;;;4412673;32;343472;-80
2023/01/06 04:22:55;;;;;;;106.57;63.10;;;;;;;;;;4399637;32;418471;-80
2023/01/06 04:25:21;;;;;;;102.47;63.53;;;;;;;;;;4412079;32;319455;-85
2023/01/06 04:27:49;;;;;;;107.87;64.60;;;;;;;;;;4399628;32;418492;-86
2023/01/06 04:30:16;;;;;;;100.10;61.00;;;;;;;;;;4410955;32;318563;-89
2023/01/06 04:32:43;;;;;;;109.53;60.43;;;;;;;;;;4402253;32;318983;-81
2023/01/06 04:35:11;;;;;;;99.87;57.27;;;;;;;;;;4396667;32;353532;-88
2023/01/06 04:37:37;;;;;;;90.83;53.83;;;;;;;;;;4397250;32;318190;-89
2023/01/06 04:40:07;;;;;;;81.27;51.37;;;;;;;;;;4413994;32;331298;-85
2023/01/06 04:43:03;;;;;;;83.87;53.37;;;;;;;;;;4390186;32;318784;-85
2023/01/06 04:45:21;;;;;;;80.93;51.27;;;;;;;;;;4408238;32;317433;-80
2023/01/06 04:47:48;;;;;;;91.83;55.63;;;;;;;;;;4411039;32;317999;-80
2023/01/06 04:50:15;;;;;;;83.83;53.63;;;;;;;;;;4416903;32;318310;-83
2023/01/06 04:52:41;;;;;;;99.23;60.37;;;;;;;;;;4412144;32;318124;-78
2023/01/06 04:55:10;;;;;;;90.80;54.30;;;;;;;;;;4421260;32;317680;-75
2023/01/06 04:57:37;;;;;;;93.30;57.60;;;;;;;;;;4416421;32;318125;-81
2023/01/06 05:00:05;;;;;;;88.47;56.97;;;;;;;;;;4419592;32;317423;-77
2023/01/06 05:02:32;;;;;;;84.63;56.50;;;;;;;;;;4403650;32;318437;-84
2023/01/06 05:04:58;;;;;;;97.63;56.93;;;;;;;;;;4412502;32;318167;-87
2023/01/06 05:07:25;;;;;;;96.53;61.73;;;;;;;;;;4404163;32;318185;-87
2023/01/06 05:09:52;;;;;;;96.17;59.13;;;;;;;;;;4413919;32;317861;-89
2023/01/06 05:12:20;;;;;;;108.87;63.50;;;;;;;;;;4412416;32;318338;-82
2023/01/06 05:14:47;;;;;;;94.57;61.00;;;;;;;;;;4402449;32;318852;-81
2023/01/06 05:17:13;;;;;;;114.67;69.30;;;;;;;;;;4412474;32;318671;-90
2023/01/06 05:19:43;;;;;;;118.50;71.07;;;;;;;;;;4403359;32;319268;-86
2023/01/06 05:22:09;;;;;;;117.63;71.03;;;;;;;;;;4412896;32;319288;-89
2023/01/06 05:24:37;;;;;;;129.80;72.50;;;;;;;;;;4402179;32;357261;-87
2023/01/06 05:27:04;;;;;;;131.27;73.37;;;;;;;;;;4409950;32;328014;-81
2023/01/06 05:29:32;;;;;;;97.70;62.23;;;;;;;;;;4402403;32;319269;-81
2023/01/06 05:31:59;;;;;;;111.50;62.50;;;;;;;;;;4407284;32;318187;-80
2023/01/06 05:34:28;;;;;;;97.67;59.33;;;;;;;;;;4387983;32;319401;-87
2023/01/06 05:36:55;;;;;;;104.57;66.27;;;;;;;;;;4401426;32;317605;-82
2023/01/06 05:39:22;;;;;;;113.27;68.53;;;;;;;;;;4412808;32;344440;-82
2023/01/06 05:41:49;;;;;;;88.37;56.87;;;;;;;;;;4399810;32;419572;-80
2023/01/06 05:44:16;;;;;;;91.57;57.97;;;;;;;;;;4413072;32;317681;-78
2023/01/06 05:46:44;;;;;;;91.17;56.03;;;;;;;;;;4403321;32;318608;-87
2023/01/06 05:49:12;;;;;;;69.27;43.43;;;;;;;;;;4416121;32;317582;-80
2023/01/06 05:51:39;;;;;;;67.37;43.83;;;;;;;;;;4406574;32;318652;-82
2023/01/06 05:54:07;;;;;;;68.17;41.27;;;;;;;;;;4414962;32;317660;-80
2023/01/06 05:56:35;;;;;;;76.47;47.30;;;;;;;;;;4405927;32;318230;-85
2023/01/06 05:59:02;;;;;;;89.20;51.30;;;;;;;;;;4414518;32;318106;-80
2023/01/06 06:01:31;;;;;;;79.47;49.57;;;;;;;;;;4406047;32;318190;-87
2023/01/06 06:03:59;;;;;;;87.30;55.00;;;;;;;;;;4416130;32;318310;-76
2023/01/06 06:06:29;;;;;;;87.53;57.70;;;;;;;;;;4403763;32;318172;-83
2023/01/06 06:08:56;;;;;;;84.03;52.57;;;;;;;;;;4415462;32;317686;-78
2023/01/06 06:11:23;;;;;;;95.13;58.03;;;;;;;;;;4405796;32;318279;-79
2023/01/06 06:13:51;;;;;;;144.47;76.97;;;;;;;;;;4415316;32;317756;-77
2023/01/06 06:16:23;;;;;;;121.10;69.47;;;;;;;;;;4415862;32;318949;-81
2023/01/06 06:18:53;;;;;;;116.50;66.37;;;;;;;;;;4403118;32;418108;-77
2023/01/06 06:21:25;;;;;;;108.57;62.33;;;;;;;;;;4414008;32;337248;-79
2023/01/06 06:23:52;;;;;;;110.43;62.87;;;;;;;;;;4401748;32;420061;-81
2023/01/06 06:26:19;;;;;;;100.13;57.10;;;;;;;;;;4416305;32;319211;-82
2023/01/06 06:28:46;;;;;;;90.73;56.10;;;;;;;;;;4397825;32;318596;-80
2023/01/06 06:31:16;;;;;;;90.37;55.73;;;;;;;;;;4406969;32;317509;-81
2023/01/06 06:33:44;;;;;;;90.87;55.83;;;;;;;;;;4390703;32;318401;-79
2023/01/06 06:36:14;;;;;;;85.10;55.23;;;;;;;;;;4402696;32;317609;-83
2023/01/06 06:38:44;;;;;;;95.27;57.23;;;;;;;;;;4390604;32;318467;-86
2023/01/06 06:41:11;;;;;;;81.27;55.73;;;;;;;;;;4405988;32;317975;-82
2023/01/06 06:43:39;;;;;;;104.50;61.87;;;;;;;;;;4402151;32;318641;-81
2023/01/06 06:46:06;;;;;;;104.30;64.50;;;;;;;;;;4413582;32;319090;-79
2023/01/06 06:48:33;;;;;;;97.40;63.73;;;;;;;;;;4391146;32;318668;-84
2023/01/06 06:51:01;;;;;;;108.10;68.03;;;;;;;;;;4400927;32;318017;-84
2023/01/06 06:53:27;;;;;;;116.80;67.37;;;;;;;;;;4404062;32;319612;-87
2023/01/06 06:55:58;;;;;;;112.77;69.77;;;;;;;;;;4409865;32;318502;-84
2023/01/06 06:58:25;;;;;;;117.47;74.83;;;;;;;;;;4401811;32;319158;-82
2023/01/06 07:00:52;;;;;;;141.13;85.43;;;;;;;;;;4414475;32;319239;-86
2023/01/06 07:03:20;;;;;;;149.40;84.27;;;;;;;;;;4413732;32;318610;-85
2023/01/06 07:05:48;;;;;;;139.37;83.83;;;;;;;;;;4403310;32;318482;-81
2023/01/06 07:08:15;;;;;;;130.47;82.27;;;;;;;;;;4400196;32;319295;-84
2023/01/06 07:10:42;;;;;;;133.60;82.60;;;;;;;;;;4387746;32;318565;-84
2023/01/06 07:13:10;;;;;;;142.70;86.87;;;;;;;;;;4398246;32;319150;-83
2023/01/06 07:15:37;;;;;;;133.57;82.30;;;;;;;;;;4389324;32;319220;-81
2023/01/06 07:18:05;;;;;;;125.53;78.00;;;;;;;;;;4398794;32;319241;-84
2023/01/06 07:20:34;;;;;;;113.70;73.43;;;;;;;;;;4388989;32;319625;-88
2023/01/06 07:23:01;;;;;;;118.30;74.30;;;;;;;;;;4398991;32;318729;-80
2023/01/06 07:25:28;;;;;;;109.17;69.13;;;;;;;;;;4387206;32;318708;-77
2023/01/06 07:27:58;;;;;;;114.53;71.33;;;;;;;;;;4404070;32;317353;-79
2023/01/06 07:30:27;;;;;;;116.17;74.77;;;;;;;;;;4402496;32;318476;-80
2023/01/06 07:32:54;;;;;;;131.50;80.47;;;;;;;;;;4412190;32;319506;-77
2023/01/06 07:35:21;;;;;;;127.27;77.23;;;;;;;;;;4397401;32;319568;-79
2023/01/06 07:37:47;;;;;;;121.60;76.57;;;;;;;;;;4398674;32;320545;-82
2023/01/06 07:40:16;;;;;;;130.77;80.80;;;;;;;;;;4413685;32;319601;-78
2023/01/06 07:42:43;;;;;;;123.33;78.17;;;;;;;;;;4387930;32;319210;-83
2023/01/06 07:45:10;;;;;;;128.83;83.53;;;;;;;;;;4397787;32;318401;-80
2023/01/06 07:47:39;;;;;;;116.80;77.20;;;;;;;;;;4388480;32;318241;-87
2023/01/06 07:50:06;;;;;;;120.80;74.53;;;;;;;;;;4397345;32;318658;-82
2023/01/06 07:52:33;;;;;;;114.30;70.40;;;;;;;;;;4387313;32;319415;-80
2023/01/06 07:55:00;;;;;;;110.90;70.43;;;;;;;;;;4396515;32;319310;-80
2023/01/06 07:57:27;;;;;;;119.87;76.40;;;;;;;;;;4383819;32;357119;-78
2023/01/06 07:59:54;;;;;;;116.10;75.27;;;;;;;;;;4403745;32;319372;-80
2023/01/06 08:02:21;;;;;;;120.77;79.43;;;;;;;;;;4404338;32;319332;-80
2023/01/06 08:04:49;;;;;;;167.80;91.90;;;;;;;;;;4400445;32;390049;-80
2023/01/06 08:07:17;;;;;;;155.87;91.20;;;;;;;;;;4406700;32;317888;-80
2023/01/06 08:09:43;;;;;;;169.10;105.10;;;;;;;;;;4394448;32;319265;-81
2023/01/06 08:12:10;;;;;;;187.73;112.63;;;;;;;;;;4404335;32;319831;-79
2023/01/06 08:14:37;;;;;;;180.97;111.67;;;;;;;;;;4394405;32;320614;-82
2023/01/06 08:17:04;;;;;;;185.67;113.13;;;;;;;;;;4412930;32;320885;-81
2023/01/06 08:19:31;;;;;;;183.03;114.47;;;;;;;;;;4402429;32;319913;-80
2023/01/06 08:21:59;;;;;;;189.77;114.17;;;;;;;;;;4412008;32;320582;-82
2023/01/06 08:24:26;;;;;;;183.80;114.23;;;;;;;;;;4403503;32;320212;-83
2023/01/06 08:26:52;;;;;;;176.77;109.90;;;;;;;;;;4411627;32;351012;-79
2023/01/06 08:29:19;;;;;;;262.10;165.77;;;;;;;;;;4412433;32;320569;-84
2023/01/06 08:31:46;;;;;;;268.63;159.93;;;;;;;;;;4397105;32;320034;-83
2023/01/06 08:34:14;;;;;;;179.63;114.87;;;;;;;;;;4402637;32;320704;-81
2023/01/06 08:36:42;;;;;;;330.33;182.97;;;;;;;;;;4395742;32;320247;-82
2023/01/06 08:39:11;;;;;;;186.83;112.47;;;;;;;;;;4400319;32;320523;-86
2023/01/06 08:41:38;;;;;;;161.47;103.60;;;;;;;;;;4398298;32;320807;-82
2023/01/06 08:44:05;;;;;;;148.00;91.77;;;;;;;;;;4417811;32;319646;-80
2023/01/06 08:46:32;;;;;;;143.53;90.97;;;;;;;;;;4413902;32;317450;-79
2023/01/06 08:48:59;;;;;;;143.43;86.90;;;;;;;;;;4425552;32;317385;-77
2023/01/06 08:51:27;;;;;;;128.63;80.80;;;;;;;;;;4413453;32;318785;-77
2023/01/06 08:53:57;;;;;;;95.50;59.93;;;;;;;;;;4422642;32;318541;-77
2023/01/06 08:56:31;;;;;;;185.13;95.93;;;;;;;;;;4407986;32;318374;-83
2023/01/06 08:59:00;;;;;;;113.57;72.23;;;;;;;;;;4415243;32;319240;-79
2023/01/06 09:01:29;;;;;;;105.23;68.00;;;;;;;;;;4411998;32;318706;-83
2023/01/06 09:06:40;;;;;;;283.27;121.33;;;;;;;;;;4400946;32;317726;-78
2023/01/06 09:09:08;;;;;;;392.87;164.40;;;;;;;;;;4399937;32;319617;-78
2023/01/06 09:11:41;;;;;;;291.57;130.03;;;;;;;;;;4388910;32;320371;-80
2023/01/06 09:14:08;;;;;;;116.90;61.33;;;;;;;;;;4407538;32;359278;-77
2023/01/06 09:16:35;;;;;;;32.33;18.73;;;;;;;;;;4396850;32;319730;-81
2023/01/06 09:19:01;;;;;;;15.13;8.90;;;;;;;;;;4412348;32;318382;-85
2023/01/06 09:21:29;;;;;;;9.73;4.37;;;;;;;;;;4397386;32;317350;-83
2023/01/06 09:23:56;;;;;;;5.07;3.27;;;;;;;;;;4414563;32;315555;-83
2023/01/06 09:26:22;;;;;;;3.90;2.27;;;;;;;;;;4411567;32;316318;-83
2023/01/06 09:28:50;;;;;;;4.37;2.77;;;;;;;;;;4394550;32;414924;-84
2023/01/06 09:31:18;;;;;;;10.10;3.93;;;;;;;;;;4412196;32;315603;-86
2023/01/06 09:33:44;;;;;;;18.03;6.70;;;;;;;;;;4407649;32;318209;-84
2023/01/06 09:36:14;;;;;;;8.20;2.37;;;;;;;;;;4406336;32;318372;-82
2023/01/06 09:38:41;;;;;;;5.43;2.57;;;;;;;;;;4403003;32;316728;-76
2023/01/06 09:41:39;;;;;;;7.23;3.27;;;;;;;;;;4409178;32;316596;-85
2023/01/06 09:44:13;;;;;;;3.33;2.20;;;;;;;;;;4395081;32;417561;-84
2023/01/06 09:46:44;;;;;;;34.67;12.27;;;;;;;;;;4383252;32;316552;-80
2023/01/06 09:49:20;;;;;;;22.53;10.90;;;;;;;;;;4406897;32;318677;-84
2023/01/06 09:51:47;;;;;;;4.97;2.50;;;;;;;;;;4395720;32;319710;-78
2023/01/06 09:54:17;;;;;;;3.93;2.47;;;;;;;;;;4405984;32;317416;-78
2023/01/06 09:56:49;;;;;;;3.23;2.33;;;;;;;;;;4397339;32;316794;-80
2023/01/06 09:59:23;;;;;;;26.00;14.73;;;;;;;;;;4408189;32;317296;-85
2023/01/06 10:01:50;;;;;;;24.30;15.30;;;;;;;;;;4397886;32;419843;-82
2023/01/06 10:04:26;;;;;;;5.33;3.57;;;;;;;;;;4410631;32;318707;-84
2023/01/06 10:07:00;;;;;;;5.10;2.77;;;;;;;;;;4399144;32;416693;-80
2023/01/06 10:09:35;;;;;;;11.70;3.20;;;;;;;;;;4401452;32;317376;-86
2023/01/06 10:12:13;;;;;;;6.27;2.70;;;;;;;;;;4412114;32;318447;-80
2023/01/06 10:14:50;;;;;;;3.13;2.70;;;;;;;;;;4401458;32;316741;-81
2023/01/06 10:17:33;;;;;;;6.37;2.40;;;;;;;;;;4409830;32;317213;-83
2023/01/06 10:20:13;;;;;;;3.40;2.27;;;;;;;;;;4398605;32;419030;-81
2023/01/06 10:22:50;;;;;;;7.73;2.07;;;;;;;;;;4402025;32;327657;-78
2023/01/06 10:25:20;;;;;;;4.60;1.93;;;;;;;;;;4398261;32;316767;-80
2023/01/06 10:27:51;;;;;;;3.03;1.47;;;;;;;;;;4401227;32;316688;-85
2023/01/06 10:30:27;;;;;;;3.83;1.90;;;;;;;;;;4412706;32;327824;-82
2023/01/06 10:32:54;;;;;;;2.80;1.67;;;;;;;;;;4398378;32;414927;-84
2023/01/06 10:35:24;;;;;;;2.50;1.90;;;;;;;;;;4414271;32;320796;-78
2023/01/06 10:37:52;;;;;;;7.47;2.03;;;;;;;;;;4398751;32;418274;-80
2023/01/06 10:40:22;;;;;;;5.77;2.23;;;;;;;;;;4413462;32;317354;-77
2023/01/06 10:43:02;;;;;;;13.07;3.30;;;;;;;;;;4401990;32;416128;-80
2023/01/06 10:45:34;;;;;;;5.57;2.50;;;;;;;;;;4397133;32;317724;-79
2023/01/06 10:48:02;;;;;;;3.83;2.23;;;;;;;;;;4419648;32;316619;-79
2023/01/06 10:50:31;;;;;;;9.47;3.57;;;;;;;;;;4389279;32;316658;-80
2023/01/06 10:52:58;;;;;;;5.93;3.33;;;;;;;;;;4394144;32;317260;-81
2023/01/06 10:55:38;;;;;;;5.30;2.60;;;;;;;;;;4395950;32;316643;-78
2023/01/06 10:58:17;;;;;;;3.03;1.50;;;;;;;;;;4399402;32;326323;-86
2023/01/06 11:00:59;;;;;;;2.50;2.00;;;;;;;;;;4389634;32;317210;-79
2023/01/06 11:03:27;;;;;;;10.67;3.87;;;;;;;;;;4389151;32;317420;-79
2023/01/06 11:06:05;;;;;;;4.80;2.33;;;;;;;;;;4397808;32;317705;-90
2023/01/06 11:08:32;;;;;;;5.17;2.47;;;;;;;;;;4388699;32;316568;-89
2023/01/06 11:10:59;;;;;;;10.30;5.90;;;;;;;;;;4398020;32;316746;-78
2023/01/06 11:13:28;;;;;;;66.63;32.27;;;;;;;;;;4388533;32;318259;-87
2023/01/06 11:15:56;;;;;;;6.23;3.83;;;;;;;;;;4398707;32;319298;-80
2023/01/06 11:18:27;;;;;;;17.37;8.00;;;;;;;;;;4402367;32;317209;-87
2023/01/06 11:21:06;;;;;;;5.43;3.23;;;;;;;;;;4400308;32;417702;-88
2023/01/06 11:23:34;;;;;;;15.60;7.10;;;;;;;;;;4404237;32;316597;-78
2023/01/06 11:26:12;;;;;;;13.67;7.53;;;;;;;;;;4412578;32;318403;-81
2023/01/06 11:28:40;;;;;;;27.33;14.13;;;;;;;;;;4396374;32;317572;-83
2023/01/06 11:31:09;;;;;;;5.23;2.80;;;;;;;;;;4420641;32;319776;-80
2023/01/06 11:33:47;;;;;;;17.63;7.83;;;;;;;;;;4402267;32;338946;-78
2023/01/06 11:36:15;;;;;;;27.27;18.30;;;;;;;;;;4410538;32;318261;-77
2023/01/06 11:38:44;;;;;;;6.67;2.67;;;;;;;;;;4382210;32;318582;-78
2023/01/06 11:41:12;;;;;;;16.77;8.20;;;;;;;;;;4412410;32;317316;-79
2023/01/06 11:43:44;;;;;;;9.20;4.60;;;;;;;;;;4402909;32;317416;-81
2023/01/06 11:46:13;;;;;;;13.60;8.10;;;;;;;;;;4413977;32;317317;-86
2023/01/06 11:48:43;;;;;;;9.43;6.63;;;;;;;;;;4396811;32;317356;-82
2023/01/06 11:51:11;;;;;;;8.10;5.27;;;;;;;;;;4402315;32;317692;-84
2023/01/06 11:53:39;;;;;;;11.70;7.43;;;;;;;;;;4403956;32;316636;-82
2023/01/06 11:56:18;;;;;;;6.37;3.30;;;;;;;;;;4412317;32;317551;-80
2023/01/06 11:58:56;;;;;;;27.23;15.10;;;;;;;;;;4403162;32;316481;-79
2023/01/06 12:01:29;;;;;;;26.57;15.90;;;;;;;;;;4411315;32;318804;-81
2023/01/06 12:04:07;;;;;;;18.53;10.13;;;;;;;;;;4412680;32;319421;-81
2023/01/06 12:06:37;;;;;;;11.77;7.40;;;;;;;;;;4403551;32;319696;-78
2023/01/06 12:09:10;;;;;;;18.03;13.27;;;;;;;;;;4413934;32;317394;-81
2023/01/06 12:11:45;;;;;;;17.13;9.77;;;;;;;;;;4403704;32;319264;-89
2023/01/06 12:14:15;;;;;;;9.03;5.30;;;;;;;;;;4411802;32;317644;-84
2023/01/06 12:16:52;;;;;;;21.33;10.90;;;;;;;;;;4404312;32;317181;-82
2023/01/06 12:19:27;;;;;;;12.23;6.83;;;;;;;;;;4412608;32;319243;-81
2023/01/06 12:21:55;;;;;;;6.90;3.60;;;;;;;;;;4400974;32;417433;-80
2023/01/06 12:24:23;;;;;;;7.53;5.13;;;;;;;;;;4412934;32;316464;-81
2023/01/06 12:26:51;;;;;;;18.43;7.87;;;;;;;;;;4398682;32;416770;-78
2023/01/06 12:29:21;;;;;;;9.60;3.97;;;;;;;;;;4410887;32;317748;-79
2023/01/06 12:31:58;;;;;;;11.77;9.17;;;;;;;;;;4399536;32;418341;-81
2023/01/06 12:34:31;;;;;;;5.23;1.77;;;;;;;;;;4403748;32;317627;-81
2023/01/06 12:37:12;;;;;;;3.97;3.07;;;;;;;;;;4400435;32;317264;-83
2023/01/06 12:39:47;;;;;;;2.67;1.80;;;;;;;;;;4390088;32;317017;-80
2023/01/06 12:42:23;;;;;;;4.00;1.90;;;;;;;;;;4409181;32;316344;-82
2023/01/06 12:44:54;;;;;;;8.17;2.97;;;;;;;;;;4392567;32;414503;-81
2023/01/06 12:47:26;;;;;;;4.10;2.03;;;;;;;;;;4410125;32;316317;-77
2023/01/06 12:49:59;;;;;;;6.57;1.80;;;;;;;;;;4395543;32;417874;-78
2023/01/06 12:52:32;;;;;;;9.97;2.47;;;;;;;;;;4388846;32;316675;-88
2023/01/06 12:55:00;;;;;;;4.67;2.10;;;;;;;;;;4396195;32;327476;-82
2023/01/06 12:57:42;;;;;;;4.20;2.27;;;;;;;;;;4386674;32;317394;-86
2023/01/06 13:00:47;;;;;;;5.70;2.50;;;;;;;;;;4396960;32;316655;-84
2023/01/06 13:03:53;;;;;;;5.90;3.10;;;;;;;;;;4385080;32;416432;-82
2023/01/06 13:06:34;;;;;;;7.10;2.63;;;;;;;;;;4400079;32;316900;-78
2023/01/06 13:09:31;;;;;;;9.43;2.97;;;;;;;;;;4400255;32;418896;-85
2023/01/06 13:12:22;;;;;;;3.93;1.93;;;;;;;;;;4400154;32;417528;-78
2023/01/06 13:14:56;;;;;;;7.30;3.57;;;;;;;;;;4399048;32;417737;-90
2023/01/06 13:17:28;;;;;;;9.03;5.77;;;;;;;;;;4407575;32;317059;-85
2023/01/06 13:19:57;;;;;;;6.20;3.90;;;;;;;;;;4412240;32;316527;-80
2023/01/06 13:22:46;;;;;;;9.47;4.87;;;;;;;;;;4403323;32;316584;-82
2023/01/06 13:25:33;;;;;;;5.13;2.83;;;;;;;;;;4411616;32;316424;-83
2023/01/06 13:28:10;;;;;;;8.73;4.57;;;;;;;;;;4400240;32;417827;-87
2023/01/06 13:30:54;;;;;;;5.37;3.03;;;;;;;;;;4402015;32;316586;-82
2023/01/06 13:33:37;;;;;;;9.07;3.73;;;;;;;;;;4413055;32;316345;-79
2023/01/06 13:36:30;;;;;;;12.63;4.83;;;;;;;;;;4398152;32;417970;-83
2023/01/06 13:39:04;;;;;;;7.10;4.23;;;;;;;;;;4398554;32;418417;-82
2023/01/06 13:41:36;;;;;;;6.67;2.50;;;;;;;;;;4402565;32;317115;-80
2023/01/06 13:44:05;;;;;;;2.53;2.00;;;;;;;;;;4412894;32;317718;-79
2023/01/06 13:46:34;;;;;;;3.43;2.13;;;;;;;;;;4405430;32;353436;-79
2023/01/06 13:49:04;;;;;;;6.43;3.13;;;;;;;;;;4411267;32;317291;-82
2023/01/06 13:51:36;;;;;;;6.13;4.00;;;;;;;;;;4402007;32;316886;-78
2023/01/06 13:54:04;;;;;;;5.30;3.50;;;;;;;;;;4412985;32;317169;-81
2023/01/06 13:56:32;;;;;;;5.13;3.47;;;;;;;;;;4401437;32;317343;-86
2023/01/06 13:59:27;;;;;;;8.20;5.27;;;;;;;;;;4412960;32;317350;-84
2023/01/06 14:01:58;;;;;;;8.20;3.80;;;;;;;;;;4399573;32;419041;-78
2023/01/06 14:04:48;;;;;;;5.90;3.50;;;;;;;;;;4400894;32;316643;-87
2023/01/06 14:07:29;;;;;;;8.43;5.20;;;;;;;;;;4411018;32;316836;-79
2023/01/06 14:10:01;;;;;;;12.67;7.60;;;;;;;;;;4401271;32;419039;-81
2023/01/06 14:12:28;;;;;;;13.67;6.13;;;;;;;;;;4405832;32;318307;-79
2023/01/06 14:15:04;;;;;;;6.83;4.47;;;;;;;;;;4414333;32;317700;-79
2023/01/06 14:17:38;;;;;;;11.30;6.97;;;;;;;;;;4405591;32;316464;-82
2023/01/06 14:20:06;;;;;;;8.60;4.43;;;;;;;;;;4415630;32;318570;-78
2023/01/06 14:22:33;;;;;;;11.43;4.43;;;;;;;;;;4405383;32;317216;-80
2023/01/06 14:25:04;;;;;;;8.13;3.40;;;;;;;;;;4410116;32;317523;-80
2023/01/06 14:28:05;;;;;;;18.70;12.27;;;;;;;;;;4412167;32;317435;-77
2023/01/06 14:30:33;;;;;;;20.80;11.60;;;;;;;;;;4397188;32;318749;-82
2023/01/06 14:33:03;;;;;;;45.87;23.70;;;;;;;;;;4414097;32;347071;-81